createdAt,value
2023-03-05T00:01:29.395Z,100373.28
2023-03-05T00:03:57.722Z,100367.81
2023-03-05T00:06:28.236Z,100368.47
2023-03-05T00:08:58.380Z,100368.50
2023-03-05T00:11:30.236Z,100366.03
2023-03-05T00:13:58.497Z,100363.28
2023-03-05T00:16:28.504Z,100359.63
2023-03-05T00:18:57.504Z,100365.78
2023-03-05T00:21:53.752Z,100369.31
2023-03-05T00:24:20.838Z,100369.44
2023-03-05T00:26:48.182Z,100364.81
2023-03-05T00:29:30.800Z,100361.41
2023-03-05T00:31:58.770Z,100369.84
2023-03-05T00:34:28.076Z,100376.88
2023-03-05T00:36:55.174Z,100376.03
2023-03-05T00:39:22.722Z,100379.72
2023-03-05T00:41:50.753Z,100375.38
2023-03-05T00:44:17.905Z,100368.97
2023-03-05T00:46:45.016Z,100369.06
2023-03-05T00:49:12.065Z,100372.66
2023-03-05T00:51:39.321Z,100374.28
2023-03-05T00:54:06.638Z,100367.63
2023-03-05T00:56:34.179Z,100365.69
2023-03-05T00:59:01.240Z,100365.69
2023-03-05T01:01:29.282Z,100365.66
2023-03-05T01:03:57.574Z,100360.41
2023-03-05T01:06:24.612Z,100359.53
2023-03-05T01:08:51.641Z,100353.34
2023-03-05T01:11:18.938Z,100360.50
2023-03-05T01:13:46.003Z,100342.13
2023-03-05T01:16:13.111Z,100343.25
2023-03-05T01:18:41.042Z,100338.75
2023-03-05T01:21:08.546Z,100328.19
2023-03-05T01:23:37.552Z,100324.88
2023-03-05T01:26:05.744Z,100321.41
2023-03-05T01:28:33.253Z,100316.19
2023-03-05T01:31:00.283Z,100310.94
2023-03-05T01:33:27.337Z,100304.00
2023-03-05T01:35:54.429Z,100289.13
2023-03-05T01:38:21.542Z,100296.91
2023-03-05T01:40:48.575Z,100291.72
2023-03-05T01:43:28.385Z,100306.63
2023-03-05T01:46:13.494Z,100312.66
2023-03-05T01:48:44.934Z,100308.03
2023-03-05T01:51:12.284Z,100320.03
2023-03-05T01:53:40.122Z,100329.81
2023-03-05T01:56:07.308Z,100338.44
2023-03-05T01:58:34.349Z,100329.03
2023-03-05T02:01:02.696Z,100305.78
2023-03-05T02:03:29.867Z,100281.41
2023-03-05T02:05:56.959Z,100266.50
2023-03-05T02:08:25.035Z,100252.66
2023-03-05T02:10:56.442Z,100254.19
2023-03-05T02:13:35.890Z,100247.06
2023-03-05T02:16:03.328Z,100245.22
2023-03-05T02:18:30.830Z,100255.63
2023-03-05T02:20:57.741Z,100250.28
2023-03-05T02:23:29.140Z,100248.22
2023-03-05T02:25:56.727Z,100243.03
2023-03-05T02:28:31.320Z,100226.50
2023-03-05T02:30:58.583Z,100210.63
2023-03-05T02:33:25.906Z,100232.06
2023-03-05T02:35:53.229Z,100257.94
2023-03-05T02:38:21.763Z,100269.09
2023-03-05T02:40:48.769Z,100291.47
2023-03-05T02:43:15.848Z,100315.34
2023-03-05T02:45:42.927Z,100337.91
2023-03-05T02:48:10.005Z,100342.31
2023-03-05T02:50:39.812Z,100348.50
2023-03-05T02:53:07.039Z,100352.72
2023-03-05T02:55:34.540Z,100351.78
2023-03-05T02:58:01.577Z,100365.91
2023-03-05T03:00:28.876Z,100360.06
2023-03-05T03:02:56.277Z,100353.00
2023-03-05T03:05:23.287Z,100344.44
2023-03-05T03:07:51.177Z,100347.94
2023-03-05T03:10:18.576Z,100333.06
2023-03-05T03:12:48.658Z,100335.69
2023-03-05T03:15:17.358Z,100332.09
2023-03-05T03:17:44.615Z,100339.19
2023-03-05T03:20:16.654Z,100328.63
2023-03-05T03:22:45.916Z,100329.38
2023-03-05T03:25:19.116Z,100326.75
2023-03-05T03:27:46.192Z,100325.97
2023-03-05T03:30:14.037Z,100324.56
2023-03-05T03:32:41.398Z,100331.63
2023-03-05T03:35:09.262Z,100329.88
2023-03-05T03:37:36.474Z,100318.50
2023-03-05T03:40:05.805Z,100322.09
2023-03-05T03:42:33.371Z,100317.75
2023-03-05T03:45:02.388Z,100312.47
2023-03-05T03:47:30.932Z,100317.69
2023-03-05T03:49:59.040Z,100315.19
2023-03-05T03:52:26.677Z,100315.97
2023-03-05T03:54:55.761Z,100316.09
2023-03-05T03:57:22.958Z,100309.13
2023-03-05T03:59:51.104Z,100304.78
2023-03-05T04:02:18.578Z,100300.28
2023-03-05T04:04:45.793Z,100299.28
2023-03-05T04:07:13.117Z,100303.63
2023-03-05T04:09:40.108Z,100320.38
2023-03-05T04:12:07.704Z,100308.88
2023-03-05T04:14:35.194Z,100308.53
2023-03-05T04:17:02.293Z,100317.38
2023-03-05T04:19:30.753Z,100317.34
2023-03-05T04:21:59.417Z,100324.13
2023-03-05T04:24:26.753Z,100328.41
2023-03-05T04:26:54.096Z,100340.03
2023-03-05T04:29:21.195Z,100345.53
2023-03-05T04:31:48.176Z,100360.44
2023-03-05T04:34:15.408Z,100358.50
2023-03-05T04:36:42.388Z,100372.75
2023-03-05T04:39:09.429Z,100364.00
2023-03-05T04:41:36.714Z,100367.56
2023-03-05T04:44:04.140Z,100367.34
2023-03-05T04:46:31.210Z,100358.50
2023-03-05T04:48:59.139Z,100357.66
2023-03-05T04:51:26.331Z,100366.25
2023-03-05T04:53:53.294Z,100368.63
2023-03-05T04:56:20.981Z,100372.59
2023-03-05T04:58:48.145Z,100374.31
2023-03-05T05:01:15.335Z,100375.03
2023-03-05T05:03:42.330Z,100376.03
2023-03-05T05:06:09.354Z,100372.38
2023-03-05T05:08:37.139Z,100372.66
2023-03-05T05:11:07.145Z,100382.50
2023-03-05T05:13:35.178Z,100367.53
2023-03-05T05:16:02.496Z,100367.69
2023-03-05T05:18:29.545Z,100366.66
2023-03-05T05:20:56.607Z,100365.75
2023-03-05T05:23:23.735Z,100367.53
2023-03-05T05:26:02.282Z,100366.31
2023-03-05T05:28:29.811Z,100375.88
2023-03-05T05:30:57.277Z,100376.81
2023-03-05T05:33:24.529Z,100381.03
2023-03-05T05:35:52.189Z,100382.69
2023-03-05T05:38:20.027Z,100385.19
2023-03-05T05:40:46.982Z,100383.31
2023-03-05T05:43:14.444Z,100396.66
2023-03-05T05:45:41.553Z,100399.44
2023-03-05T05:48:08.711Z,100413.31
2023-03-05T05:50:35.742Z,100431.91
2023-03-05T05:53:02.847Z,100420.53
2023-03-05T05:55:29.816Z,100424.59
2023-03-05T05:57:56.788Z,100427.50
2023-03-05T06:00:24.137Z,100416.88
2023-03-05T06:02:51.253Z,100411.47
2023-03-05T06:05:18.280Z,100413.19
2023-03-05T06:07:45.488Z,100410.66
2023-03-05T06:10:12.733Z,100411.31
2023-03-05T06:12:40.131Z,100407.03
2023-03-05T06:15:08.108Z,100414.94
2023-03-05T06:17:35.310Z,100410.59
2023-03-05T06:20:02.436Z,100415.16
2023-03-05T06:22:29.587Z,100414.31
2023-03-05T06:24:56.551Z,100413.38
2023-03-05T06:27:23.497Z,100409.75
2023-03-05T06:29:54.408Z,100406.19
2023-03-05T06:32:21.690Z,100400.84
2023-03-05T06:34:49.508Z,100405.31
2023-03-05T06:37:16.966Z,100407.09
2023-03-05T06:39:44.292Z,100408.88
2023-03-05T06:42:11.382Z,100412.38
2023-03-05T06:44:41.986Z,100409.81
2023-03-05T06:47:10.607Z,100416.88
2023-03-05T06:49:39.329Z,100422.00
2023-03-05T06:52:10.288Z,100439.41
2023-03-05T06:54:37.371Z,100437.75
2023-03-05T06:57:04.848Z,100440.47
2023-03-05T06:59:31.904Z,100448.44
2023-03-05T07:01:59.002Z,100445.81
2023-03-05T07:04:26.290Z,100445.97
2023-03-05T07:06:53.660Z,100438.28
2023-03-05T07:09:20.637Z,100449.91
2023-03-05T07:11:47.698Z,100443.88
2023-03-05T07:14:14.880Z,100442.22
2023-03-05T07:16:42.215Z,100449.34
2023-03-05T07:19:11.087Z,100442.44
2023-03-05T07:21:39.905Z,100438.31
2023-03-05T07:24:08.744Z,100430.56
2023-03-05T07:26:36.347Z,100444.75
2023-03-05T07:29:03.989Z,100437.00
2023-03-05T07:31:32.219Z,100432.81
2023-03-05T07:34:02.067Z,100433.97
2023-03-05T07:36:30.813Z,100428.72
2023-03-05T07:38:58.131Z,100430.72
2023-03-05T07:41:25.233Z,100425.69
2023-03-05T07:43:54.730Z,100416.16
2023-03-05T07:46:28.906Z,100410.97
2023-03-05T07:48:56.632Z,100406.59
2023-03-05T07:51:25.802Z,100398.91
2023-03-05T07:53:55.324Z,100386.69
2023-03-05T07:56:35.590Z,100373.66
2023-03-05T07:59:07.321Z,100373.06
2023-03-05T08:01:35.396Z,100361.81
2023-03-05T08:04:05.001Z,100363.94
2023-03-05T08:06:32.546Z,100359.72
2023-03-05T08:09:00.642Z,100345.78
2023-03-05T08:11:28.754Z,100330.16
2023-03-05T08:13:58.118Z,100321.34
2023-03-05T08:16:26.420Z,100303.84
2023-03-05T08:18:58.191Z,100302.25
2023-03-05T08:21:38.053Z,100301.66
2023-03-05T08:24:08.060Z,100289.38
2023-03-05T08:26:38.628Z,100284.13
2023-03-05T08:29:09.758Z,100265.78
2023-03-05T08:31:37.560Z,100259.66
2023-03-05T08:34:05.769Z,100261.69
2023-03-05T08:36:32.897Z,100274.13
2023-03-05T08:39:00.483Z,100247.75
2023-03-05T08:41:27.920Z,100239.72
2023-03-05T08:43:55.145Z,100223.16
2023-03-05T08:46:22.277Z,100220.72
2023-03-05T08:48:49.348Z,100212.94
2023-03-05T08:51:20.313Z,100224.78
2023-03-05T08:53:48.041Z,100206.50
2023-03-05T08:56:15.988Z,100208.19
2023-03-05T08:58:43.383Z,100194.13
2023-03-05T09:01:11.155Z,100199.69
2023-03-05T09:03:38.620Z,100174.03
2023-03-05T09:06:09.626Z,100155.31
2023-03-05T09:08:36.798Z,100138.09
2023-03-05T09:11:07.367Z,100102.13
2023-03-05T09:13:35.129Z,100101.34
2023-03-05T09:16:07.196Z,100072.44
2023-03-05T09:18:36.823Z,100056.78
2023-03-05T09:21:09.595Z,100027.16
2023-03-05T09:23:36.688Z,99971.91
2023-03-05T09:26:07.975Z,99951.97
2023-03-05T09:28:35.030Z,99933.56
2023-03-05T09:31:04.856Z,99950.47
2023-03-05T09:33:33.131Z,99948.09
2023-03-05T09:36:01.056Z,99926.09
2023-03-05T09:38:29.236Z,99940.38
2023-03-05T09:41:19.385Z,99883.13
2023-03-05T09:44:17.184Z,99877.97
2023-03-05T09:46:52.011Z,99863.16
2023-03-05T09:49:37.477Z,99847.28
2023-03-05T09:52:24.006Z,99815.81
2023-03-05T09:54:57.372Z,99773.56
2023-03-05T09:57:41.113Z,99756.00
2023-03-05T10:00:50.935Z,99755.22
2023-03-05T10:03:57.595Z,99786.06
2023-03-05T10:06:51.085Z,99764.31
2023-03-05T10:09:57.386Z,99775.78
2023-03-05T10:12:42.671Z,99747.75
2023-03-05T10:15:21.488Z,99699.44
2023-03-05T10:18:27.110Z,99682.03
2023-03-05T10:21:30.735Z,99683.06
2023-03-05T10:24:10.353Z,99634.91
2023-03-05T10:27:06.203Z,99619.16
2023-03-05T10:29:49.506Z,99603.59
2023-03-05T10:32:50.546Z,99579.94
2023-03-05T10:35:42.849Z,99588.91
2023-03-05T10:38:48.189Z,99576.75
2023-03-05T10:41:40.242Z,99561.06
2023-03-05T10:44:27.313Z,99546.19
2023-03-05T10:46:58.984Z,99524.28
2023-03-05T10:49:34.044Z,99511.19
2023-03-05T10:52:32.776Z,99513.00
2023-03-05T10:55:00.036Z,99508.72
2023-03-05T10:57:32.237Z,99478.22
2023-03-05T11:00:26.309Z,99456.53
2023-03-05T11:03:06.759Z,99410.19
2023-03-05T11:05:52.532Z,99393.59
2023-03-05T11:08:36.820Z,99336.75
2023-03-05T11:11:17.881Z,99320.09
2023-03-05T11:14:03.870Z,99274.59
2023-03-05T11:16:34.565Z,99279.97
2023-03-05T11:19:25.092Z,99259.00
2023-03-05T11:22:23.084Z,99207.38
2023-03-05T11:25:18.345Z,99176.75
2023-03-05T11:27:56.147Z,99171.47
2023-03-05T11:30:29.364Z,99205.72
2023-03-05T11:33:22.641Z,99255.66
2023-03-05T11:35:52.542Z,99209.19
2023-03-05T11:38:24.585Z,99194.28
2023-03-05T11:40:54.550Z,99152.25
2023-03-05T11:46:24.815Z,99164.59
2023-03-05T11:48:55.073Z,99125.22
2023-03-05T11:51:39.375Z,99141.84
2023-03-05T11:54:14.489Z,99169.94
2023-03-05T11:56:44.613Z,99065.72
2023-03-05T11:59:20.950Z,99022.81
2023-03-05T12:01:55.002Z,99011.47
2023-03-05T12:04:23.991Z,99035.97
2023-03-05T12:07:00.908Z,99031.59
2023-03-05T12:09:44.208Z,99019.34
2023-03-05T12:12:28.764Z,98980.81
2023-03-05T12:15:35.077Z,98959.81
2023-03-05T12:18:42.371Z,98929.22
2023-03-05T12:21:41.271Z,98909.09
2023-03-05T12:24:25.408Z,98860.09
2023-03-05T12:26:53.518Z,98893.34
2023-03-05T12:29:51.072Z,98908.22
2023-03-05T12:32:35.157Z,98935.38
2023-03-05T12:35:15.742Z,98953.81
2023-03-05T12:37:45.713Z,98914.38
2023-03-05T12:40:30.694Z,98961.66
2023-03-05T12:43:05.778Z,98944.13
2023-03-05T12:45:52.932Z,98910.88
2023-03-05T12:48:19.909Z,98877.63
2023-03-05T12:50:52.900Z,98840.00
2023-03-05T12:53:21.369Z,98816.34
2023-03-05T12:56:20.121Z,98804.13
2023-03-05T12:58:55.708Z,98828.63
2023-03-05T13:01:42.456Z,98817.22
2023-03-05T13:04:24.097Z,98825.97
2023-03-05T13:07:16.192Z,98803.22
2023-03-05T13:09:57.363Z,98786.59
2023-03-05T13:12:30.183Z,98772.59
2023-03-05T13:15:07.275Z,98786.59
2023-03-05T13:17:52.436Z,98811.97
2023-03-05T13:20:40.622Z,98809.34
2023-03-05T13:23:26.595Z,98837.34
2023-03-05T13:26:15.724Z,98841.72
2023-03-05T13:29:03.465Z,98819.84
2023-03-05T13:31:31.380Z,98826.84
2023-03-05T13:34:47.161Z,98841.69
2023-03-05T13:37:31.801Z,98866.22
2023-03-05T13:40:01.049Z,98837.31
2023-03-05T13:42:34.907Z,98818.94
2023-03-05T13:45:28.805Z,98804.09
2023-03-05T13:48:03.215Z,98798.81
2023-03-05T13:50:40.363Z,98776.06
2023-03-05T13:53:30.755Z,98844.31
2023-03-05T13:56:07.779Z,98825.00
2023-03-05T13:58:54.919Z,98846.00
2023-03-05T14:01:32.906Z,98871.44
2023-03-05T14:04:22.221Z,98837.25
2023-03-05T14:07:06.939Z,98864.34
2023-03-05T14:09:39.999Z,98879.25
2023-03-05T14:12:44.039Z,98881.84
2023-03-05T14:15:27.226Z,98866.97
2023-03-05T14:18:15.649Z,98862.59
2023-03-05T14:21:09.036Z,98845.97
2023-03-05T14:23:37.994Z,98863.47
2023-03-05T14:26:19.777Z,98852.94
2023-03-05T14:29:13.056Z,98864.31
2023-03-05T14:32:05.280Z,98873.06
2023-03-05T14:34:42.283Z,98856.47
2023-03-05T14:37:29.044Z,98856.44
2023-03-05T14:40:08.537Z,98869.59
2023-03-05T14:42:39.399Z,98850.38
2023-03-05T14:45:17.772Z,98869.63
2023-03-05T14:47:45.863Z,98849.50
2023-03-05T14:50:39.173Z,98822.38
2023-03-05T14:53:16.350Z,98848.59
2023-03-05T14:55:44.936Z,98799.63
2023-03-05T14:58:21.793Z,98801.38
2023-03-05T15:00:51.201Z,98784.78
2023-03-05T15:03:20.444Z,98803.16
2023-03-05T15:05:51.787Z,98790.91
2023-03-05T15:08:31.081Z,98783.91
2023-03-05T15:10:59.370Z,98783.91
2023-03-05T15:13:27.234Z,98775.16
2023-03-05T15:15:54.900Z,98752.44
2023-03-05T15:18:23.814Z,98800.50
2023-03-05T15:20:55.020Z,98776.00
2023-03-05T15:23:22.053Z,98810.97
2023-03-05T15:25:49.761Z,98783.88
2023-03-05T15:28:17.268Z,98747.13
2023-03-05T15:30:47.328Z,98754.09
2023-03-05T15:33:17.079Z,98735.75
2023-03-05T15:35:44.846Z,98725.28
2023-03-05T15:38:12.970Z,98721.78
2023-03-05T15:40:40.481Z,98720.03
2023-03-05T15:43:07.737Z,98707.78
2023-03-05T15:45:34.866Z,98707.78
2023-03-05T15:48:02.036Z,98724.38
2023-03-05T15:50:29.208Z,98730.44
2023-03-05T15:52:56.520Z,98742.63
2023-03-05T15:55:24.040Z,98749.63
2023-03-05T15:57:53.012Z,98753.09
2023-03-05T16:00:31.131Z,98760.06
2023-03-05T16:02:58.418Z,98758.31
2023-03-05T16:05:26.952Z,98784.50
2023-03-05T16:07:55.329Z,98808.06
2023-03-05T16:10:29.120Z,98825.50
2023-03-05T16:13:06.533Z,98841.22
2023-03-05T16:15:35.265Z,98847.31
2023-03-05T16:18:07.053Z,98842.97
2023-03-05T16:20:36.478Z,98831.59
2023-03-05T16:23:05.908Z,98815.91
2023-03-05T16:25:33.547Z,98806.28
2023-03-05T16:28:00.789Z,98784.47
2023-03-05T16:30:29.608Z,98772.25
2023-03-05T16:32:56.801Z,98773.13
2023-03-05T16:35:24.014Z,98806.25
2023-03-05T16:37:51.763Z,98824.59
2023-03-05T16:40:19.517Z,98842.00
2023-03-05T16:42:46.931Z,98854.25
2023-03-05T16:45:14.155Z,98852.50
2023-03-05T16:47:41.485Z,98856.00
2023-03-05T16:50:10.706Z,98898.03
2023-03-05T16:52:38.120Z,98883.09
2023-03-05T16:55:06.209Z,98875.19
2023-03-05T16:57:33.347Z,98870.81
2023-03-05T17:00:02.591Z,98855.97
2023-03-05T17:02:29.757Z,98849.84
2023-03-05T17:04:57.881Z,98835.84
2023-03-05T17:07:26.614Z,98834.09
2023-03-05T17:09:54.357Z,98829.69
2023-03-05T17:12:22.422Z,98834.91
2023-03-05T17:14:49.547Z,98844.50
2023-03-05T17:17:16.605Z,98847.09
2023-03-05T17:19:43.899Z,98850.59
2023-03-05T17:22:12.740Z,98852.31
2023-03-05T17:24:42.962Z,98847.09
2023-03-05T17:27:10.844Z,98849.69
2023-03-05T17:29:37.883Z,98850.53
2023-03-05T17:32:05.720Z,98850.50
2023-03-05T17:34:36.691Z,98858.31
2023-03-05T17:37:05.907Z,98867.06
2023-03-05T17:39:51.214Z,98862.72
2023-03-05T17:42:30.837Z,98871.41
2023-03-05T17:44:59.289Z,98861.78
2023-03-05T17:47:26.587Z,98858.31
2023-03-05T17:49:53.654Z,98852.22
2023-03-05T17:52:21.223Z,98846.97
2023-03-05T17:54:50.436Z,98846.06
2023-03-05T17:57:17.558Z,98850.38
2023-03-05T17:59:44.789Z,98864.34
2023-03-05T18:02:12.817Z,98861.78
2023-03-05T18:04:41.543Z,98856.59
2023-03-05T18:07:08.679Z,98839.13
2023-03-05T18:09:35.812Z,98850.47
2023-03-05T18:12:02.931Z,98817.34
2023-03-05T18:14:29.973Z,98813.00
2023-03-05T18:16:59.232Z,98800.78
2023-03-05T18:19:26.876Z,98767.63
2023-03-05T18:21:54.069Z,98752.81
2023-03-05T18:24:21.225Z,98732.78
2023-03-05T18:26:48.881Z,98717.97
2023-03-05T18:29:18.538Z,98697.91
2023-03-05T18:31:46.462Z,98687.41
2023-03-05T18:34:13.638Z,98685.69
2023-03-05T18:36:40.674Z,98670.84
2023-03-05T18:39:07.793Z,98669.06
2023-03-05T18:41:34.760Z,98668.19
2023-03-05T18:44:01.901Z,98662.06
2023-03-05T18:46:28.955Z,98668.19
2023-03-05T18:48:55.997Z,98658.59
2023-03-05T18:51:24.605Z,98660.31
2023-03-05T18:53:54.958Z,98658.59
2023-03-05T18:56:22.321Z,98667.28
2023-03-05T18:58:49.996Z,98664.66
2023-03-05T19:01:19.052Z,98664.66
2023-03-05T19:03:48.995Z,98677.72
2023-03-05T19:06:17.868Z,98673.38
2023-03-05T19:08:45.806Z,98653.34
2023-03-05T19:11:21.087Z,98655.94
2023-03-05T19:13:50.489Z,98649.81
2023-03-05T19:16:21.829Z,98655.91
2023-03-05T19:19:24.616Z,98658.50
2023-03-05T19:21:59.867Z,98658.50
2023-03-05T19:24:30.104Z,98665.44
2023-03-05T19:27:01.173Z,98682.03
2023-03-05T19:29:33.151Z,98673.34
2023-03-05T19:32:00.192Z,98673.34
2023-03-05T19:34:27.638Z,98670.69
2023-03-05T19:36:55.130Z,98682.00
2023-03-05T19:39:22.332Z,98688.13
2023-03-05T19:41:49.600Z,98693.31
2023-03-05T19:44:16.785Z,98698.56
2023-03-05T19:46:43.829Z,98696.81
2023-03-05T19:49:11.059Z,98702.00
2023-03-05T19:51:40.458Z,98709.78
2023-03-05T19:54:07.750Z,98721.91
2023-03-05T19:56:39.802Z,98742.81
2023-03-05T19:59:07.713Z,98743.69
2023-03-05T20:01:35.918Z,98749.81
2023-03-05T20:04:05.495Z,98749.81
2023-03-05T20:06:34.311Z,98754.22
2023-03-05T20:09:01.320Z,98745.50
2023-03-05T20:11:28.806Z,98742.06
2023-03-05T20:13:56.744Z,98719.41
2023-03-05T20:16:31.401Z,98702.03
2023-03-05T20:18:59.727Z,98690.69
2023-03-05T20:21:34.791Z,98665.44
2023-03-05T20:24:09.940Z,98648.03
2023-03-05T20:26:39.729Z,98641.91
2023-03-05T20:29:08.026Z,98632.31
2023-03-05T20:31:37.396Z,98626.22
2023-03-05T20:34:11.484Z,98632.28
2023-03-05T20:36:39.265Z,98644.47
2023-03-05T20:39:07.138Z,98646.19
2023-03-05T20:41:36.929Z,98659.28
2023-03-05T20:44:04.774Z,98664.53
2023-03-05T20:49:12.069Z,98645.34
2023-03-05T20:51:39.380Z,98640.13
2023-03-05T20:54:13.208Z,98634.91
2023-03-05T20:56:40.165Z,98632.28
2023-03-05T20:59:08.977Z,98644.44
2023-03-05T21:01:39.402Z,98651.44
2023-03-05T21:04:06.982Z,98660.16
2023-03-05T21:06:36.839Z,98662.75
2023-03-05T21:09:04.315Z,98661.03
2023-03-05T21:11:32.217Z,98648.84
2023-03-05T21:13:59.536Z,98647.94
2023-03-05T21:16:28.062Z,98645.34
2023-03-05T21:18:57.371Z,98633.97
2023-03-05T21:21:25.188Z,98640.91
2023-03-05T21:23:53.469Z,98659.22
2023-03-05T21:26:21.251Z,98670.53
2023-03-05T21:28:48.556Z,98676.63
2023-03-05T21:31:19.844Z,98670.53
2023-03-05T21:33:47.068Z,98678.34
2023-03-05T21:36:18.637Z,98680.97
2023-03-05T21:38:47.677Z,98664.41
2023-03-05T21:41:15.492Z,98659.22
2023-03-05T21:43:42.852Z,98636.59
2023-03-05T21:46:11.148Z,98605.22
2023-03-05T21:48:38.416Z,98591.25
2023-03-05T21:52:15.262Z,98576.44
2023-03-05T21:54:43.026Z,98569.44
2023-03-05T21:57:11.857Z,98569.41
2023-03-05T21:59:42.749Z,98565.06
2023-03-05T22:02:18.791Z,98567.66
2023-03-05T22:04:46.917Z,98582.47
2023-03-05T22:07:16.104Z,98598.13
2023-03-05T22:09:43.259Z,98597.28
2023-03-05T22:12:57.181Z,98589.34
2023-03-05T22:15:24.610Z,98598.03
2023-03-05T22:17:51.622Z,98586.72
2023-03-05T22:20:18.986Z,98553.69
2023-03-05T22:22:49.212Z,98529.25
2023-03-05T22:25:17.145Z,98510.09
2023-03-05T22:27:45.314Z,98492.66
2023-03-05T22:30:14.058Z,98483.06
2023-03-05T22:32:41.115Z,98501.31
2023-03-05T22:35:13.415Z,98507.41
2023-03-05T22:37:41.708Z,98514.34
2023-03-05T22:40:14.105Z,98543.03
2023-03-05T22:42:41.751Z,98570.88
2023-03-05T22:45:09.754Z,98596.16
2023-03-05T22:47:36.902Z,98582.25
2023-03-05T22:50:05.466Z,98577.81
2023-03-05T22:52:32.718Z,98591.75
2023-03-05T22:55:03.086Z,98605.63
2023-03-05T22:57:30.431Z,98627.41
2023-03-05T22:59:57.595Z,98628.28
2023-03-05T23:02:24.770Z,98628.28
2023-03-05T23:05:00.427Z,98621.34
2023-03-05T23:07:31.969Z,98594.41
2023-03-05T23:10:09.091Z,98587.38
2023-03-05T23:12:39.135Z,98579.53
2023-03-05T23:15:10.905Z,98587.38
2023-03-05T23:17:38.222Z,98598.66
2023-03-05T23:20:10.306Z,98583.84
2023-03-05T23:22:39.680Z,98600.41
2023-03-05T23:25:07.551Z,98580.41
2023-03-05T23:27:34.626Z,98570.81
2023-03-05T23:30:17.756Z,98559.47
2023-03-05T23:33:16.633Z,98535.13
2023-03-05T23:35:51.119Z,98517.69
2023-03-05T23:38:18.492Z,98532.50
2023-03-05T23:40:51.571Z,98529.00
2023-03-05T23:43:19.580Z,98534.25
2023-03-05T23:45:49.437Z,98531.59
2023-03-05T23:48:17.653Z,98531.56
2023-03-05T23:50:47.785Z,98554.19
2023-03-05T23:53:22.082Z,98572.41
2023-03-05T23:55:49.826Z,98558.59
2023-03-05T23:58:19.117Z,98549.84
